Leesburg, VA

05:58 PM EDT on Augusti 21, 2014 (GMT -0400)
Washington Dulles International | Change Station
CLOSE
Current Station
Airport
Location: Dulles Airport,
Elevation: 322 ft
Nearby Weather Stations

Elev 322 ft 38.93 °N, 77.45 °W | Updated 6 minutes ago

Light Thunderstorms and Rain
Lätt åskväder med regn
72 °F
Feels Like 72 °F
N
9
Vind Växlande Vind from Sydlig

Idag
High -- | Low -- °F
--% Chance of Precip.
Yesterday
High -- | Low -- °F
Precip. -- tum
6:29 AM 7:57 PM
Fjärde kvarteret, 12% visible
Lufttryck 30.01 tum
Sikt 3.0 miles
Molnigt Few 1600 ft
Mestadels molnigt 2700 ft
Molnigt 6000 ft
Daggpunkt 70 °F
Luftfuktighet 93%
Rainfall 1.42 tum
Snow Depth Not available.
UV 1 out of 12
Pollen 9.10 out of 12
Ozon God
PM2.5 Måttlig
Flu Activity Not available.
METAR KIAD 212152Z 17008KT 3SM R01R/3500VP6000FT -TSRA FEW016 BKN027CB OVC060 22/21 A3001 RMK AO2 TSE09B43 SLP160 PK WND 1128/2053 OCNL LTGICCG OHD TS OHD MOV SE P0044 T02220211

More Conditions Fewer Conditions

Lufttryck 30.01 tum
Sikt 3.0 miles
Molnigt Few 1600 ft
Mestadels molnigt 2700 ft
Molnigt 6000 ft
Daggpunkt 70 °F
Luftfuktighet 93%
Rainfall 1.42 tum
Snow Depth Not available.
UV 1 out of 12
Pollen 9.10 out of 12
Ozon God
PM2.5 Måttlig
Flu Activity Not available.
METAR KIAD 212152Z 17008KT 3SM R01R/3500VP6000FT -TSRA FEW016 BKN027CB OVC060 22/21 A3001 RMK AO2 TSE09B43 SLP160 PK WND 1128/2053 OCNL LTGICCG OHD TS OHD MOV SE P0044 T02220211

More Conditions Fewer Conditions

10-Day Weather Forecast

Almanac

Astronomi

Aug. 21, 2014 Rise Set
Actual Time 6:29 AM EDT 7:57 PM EDT
Civil Twilight 6:01 AM EDT 8:25 PM EDT
Nautical Twilight 5:27 AM EDT 8:58 PM EDT
Astronomical Twilight 4:51 AM EDT 9:34 PM EDT
Månen 2:58 AM EDT 5:23 PM EDT
Length Of Visible Light 14h 24m
Dagens längd
13h 28m
Tomorrow will be 2m 20s shorter.
Fjärde kvarteret, 12% of the Moon is Illuminated
Idag
Fjärde kvarteret
Aug 25
New
Sep 2
Första kvarteret
Sep 8
Fullmåne
Sep 15
Sista kvarteret

Today's Extremes

State Highs State Lows

Community

WunderPhotos

Upload Photos

1,746,021 photos uploaded!

WunderBlogs® & News

Nearby

Air Quality

  Air Quality AQ Index Pollutant
Yesterday God
OZONE
Yesterday God
PM10
Current Måttlig
PM2.5
Current God
OZONE
Torsdag God
OZONE
Torsdag God
PM2.5
Fredag Måttlig
PM2.5
Fredag God
OZONE
Lördag God
PM2.5
Lördag God
OZONE
Söndag God
OZONE
Söndag God
PM2.5

Snödjup

Station Depth Elevation
No new snow has been reported.

Earthquake Activity

Stad Distance Mag. Time & Date
No recent earthquake activity has been reported nearby.
Minimum magnitude displayed is 2.5.

Coastal Water Temperatures

Plats Temperatur
No Stations Reporting

Nearby Weather Stations